Time;durP1;ratioP1;P1;durP2;ratioP2;P2;SDS_P1;SDS_P2;PMS_P1;PMS_P2;Temp;Humidity;BMP_temperature;BMP_pressure;BME280_temperature;BME280_humidity;BME280_pressure;Samples;Min_cycle;Max_cycle;Signal;HPM_P1;HPM_P2
2023/01/23 00:02:16;;;;;;;;;;;9.80;99.90;;;;;;5091411;28;20541;-78
2023/01/23 00:04:41;;;;;;;;;;;9.70;99.90;;;;;;5090665;28;19908;-76
2023/01/23 00:07:07;;;;;;;;;;;9.80;99.90;;;;;;5090768;28;19920;-76
2023/01/23 00:09:32;;;;;;;;;;;9.80;99.90;;;;;;5091055;28;20380;-77
2023/01/23 00:11:58;;;;;;;;;;;9.80;99.90;;;;;;5091863;28;19983;-77
2023/01/23 00:14:24;;;;;;;;;;;9.80;99.90;;;;;;5091785;28;19934;-77
2023/01/23 00:16:49;;;;;;;;;;;9.80;99.90;;;;;;5091260;28;19912;-77
2023/01/23 00:19:15;;;;;;;;;;;9.80;99.90;;;;;;5091077;28;19977;-77
2023/01/23 00:21:41;;;;;;;;;;;9.70;99.90;;;;;;5090255;28;20037;-76
2023/01/23 00:24:09;;;;;;;;;;;9.70;99.90;;;;;;5090865;28;19919;-77
2023/01/23 00:26:35;;;;;;;;;;;9.70;99.90;;;;;;5090452;28;20272;-76
2023/01/23 00:29:01;;;;;;;;;;;9.70;99.90;;;;;;5090627;28;19908;-77
2023/01/23 00:31:31;;;;;;;;;;;9.70;99.90;;;;;;5091288;28;19913;-77
2023/01/23 00:33:58;;;;;;;;;;;9.70;99.90;;;;;;5091002;28;19998;-77
2023/01/23 00:36:26;;;;;;;;;;;9.70;99.90;;;;;;5090702;28;19971;-77
2023/01/23 00:38:52;;;;;;;;;;;9.70;99.90;;;;;;5090881;28;19912;-81
2023/01/23 00:41:17;;;;;;;;;;;9.70;99.90;;;;;;5091537;28;19974;-78
2023/01/23 00:43:43;;;;;;;;;;;9.70;99.90;;;;;;5092912;28;19908;-78
2023/01/23 00:46:09;;;;;;;;;;;9.60;99.90;;;;;;5093973;28;20245;-78
2023/01/23 00:48:34;;;;;;;;;;;9.60;99.90;;;;;;5093007;28;19908;-78
2023/01/23 00:51:00;;;;;;;;;;;9.60;99.90;;;;;;5093051;28;20264;-78
2023/01/23 00:53:26;;;;;;;;;;;9.60;99.90;;;;;;5092927;28;20048;-78
2023/01/23 00:55:52;;;;;;;;;;;9.60;99.90;;;;;;5091645;28;19951;-78
2023/01/23 00:58:17;;;;;;;;;;;9.60;99.90;;;;;;5090828;28;19939;-78
2023/01/23 01:00:43;;;;;;;;;;;9.60;99.90;;;;;;5089962;28;19951;-78
2023/01/23 01:03:09;;;;;;;;;;;9.60;99.90;;;;;;5090052;28;19908;-77
2023/01/23 01:05:35;;;;;;;;;;;9.60;99.90;;;;;;5089731;28;19912;-78
2023/01/23 01:08:00;;;;;;;;;;;9.70;99.90;;;;;;5090634;28;19916;-77
2023/01/23 01:10:28;;;;;;;;;;;9.60;99.90;;;;;;5091373;28;20011;-78
2023/01/23 01:12:54;;;;;;;;;;;9.70;99.90;;;;;;5090216;28;20293;-78
2023/01/23 01:15:20;;;;;;;;;;;9.60;99.90;;;;;;5091209;28;20018;-77
2023/01/23 01:17:45;;;;;;;;;;;9.70;99.90;;;;;;5088813;28;20006;-77
2023/01/23 01:20:11;;;;;;;;;;;9.70;99.90;;;;;;5090595;28;19963;-78
2023/01/23 01:22:37;;;;;;;;;;;9.60;99.90;;;;;;5090160;28;20307;-78
2023/01/23 01:25:03;;;;;;;;;;;9.60;99.90;;;;;;5090797;28;19909;-79
2023/01/23 01:27:28;;;;;;;;;;;9.70;99.90;;;;;;5090249;28;19916;-78
2023/01/23 01:29:54;;;;;;;;;;;9.80;99.90;;;;;;5090369;28;19908;-80
2023/01/23 01:32:19;;;;;;;;;;;9.80;99.90;;;;;;5090610;28;20010;-77
2023/01/23 01:34:45;;;;;;;;;;;9.80;99.90;;;;;;5090032;28;19908;-78
2023/01/23 01:37:10;;;;;;;;;;;9.90;99.90;;;;;;5090768;28;19943;-77
2023/01/23 01:39:36;;;;;;;;;;;10.00;99.90;;;;;;5090196;28;19912;-78
2023/01/23 01:42:02;;;;;;;;;;;10.00;99.90;;;;;;5090930;28;19908;-77
2023/01/23 01:44:27;;;;;;;;;;;10.10;99.90;;;;;;5090557;28;19972;-77
2023/01/23 01:46:53;;;;;;;;;;;10.10;99.90;;;;;;5089995;28;19931;-77
2023/01/23 01:49:23;;;;;;;;;;;10.20;99.90;;;;;;5090180;28;19915;-77
2023/01/23 01:51:56;;;;;;;;;;;10.30;99.90;;;;;;5090152;28;20418;-77
2023/01/23 01:54:21;;;;;;;;;;;10.30;99.90;;;;;;5090213;28;19939;-77
2023/01/23 01:56:59;;;;;;;;;;;10.40;99.90;;;;;;5090102;28;19944;-77
2023/01/23 01:59:26;;;;;;;;;;;10.40;99.90;;;;;;5090508;28;19910;-77
2023/01/23 02:01:55;;;;;;;;;;;10.40;99.90;;;;;;5089570;28;20027;-78
2023/01/23 02:04:21;;;;;;;;;;;10.50;99.90;;;;;;5090590;28;19908;-77
2023/01/23 02:06:47;;;;;;;;;;;10.60;99.90;;;;;;5089487;28;20447;-78
2023/01/23 02:09:16;;;;;;;;;;;10.60;99.90;;;;;;5090567;28;19920;-78
2023/01/23 02:11:42;;;;;;;;;;;10.50;99.90;;;;;;5089306;28;20007;-77
2023/01/23 02:14:09;;;;;;;;;;;10.60;99.90;;;;;;5091828;28;20004;-78
2023/01/23 02:16:39;;;;;;;;;;;10.60;99.90;;;;;;5093245;28;19908;-84
2023/01/23 02:19:17;;;;;;;;;;;10.60;99.90;;;;;;5093842;28;19959;-77
2023/01/23 02:21:45;;;;;;;;;;;10.60;99.90;;;;;;5093291;28;19915;-78
2023/01/23 02:24:15;;;;;;;;;;;10.60;99.90;;;;;;5093860;28;19915;-77
2023/01/23 02:26:42;;;;;;;;;;;10.60;99.90;;;;;;5093240;28;20238;-78
2023/01/23 02:29:08;;;;;;;;;;;10.70;99.90;;;;;;5094014;28;19908;-78
2023/01/23 02:31:36;;;;;;;;;;;10.70;99.90;;;;;;5094255;28;19977;-82
2023/01/23 02:34:02;;;;;;;;;;;10.70;99.90;;;;;;5093548;28;19912;-77
2023/01/23 02:36:29;;;;;;;;;;;10.70;99.90;;;;;;5093770;28;19916;-77
2023/01/23 02:39:12;;;;;;;;;;;10.70;99.90;;;;;;5093199;28;19912;-78
2023/01/23 02:41:42;;;;;;;;;;;10.70;99.90;;;;;;5092963;28;20264;-82
2023/01/23 02:44:28;;;;;;;;;;;10.70;99.90;;;;;;5093533;28;20381;-78
2023/01/23 02:46:54;;;;;;;;;;;10.70;99.90;;;;;;5092869;28;20403;-78
2023/01/23 02:49:20;;;;;;;;;;;10.70;99.90;;;;;;5093286;28;19908;-77
2023/01/23 02:51:47;;;;;;;;;;;10.70;99.90;;;;;;5092961;28;20010;-77
2023/01/23 02:54:13;;;;;;;;;;;10.60;99.90;;;;;;5093285;28;20419;-77
2023/01/23 02:56:40;;;;;;;;;;;10.70;99.90;;;;;;5092988;28;19991;-83
2023/01/23 03:01:51;;;;;;;;;;;10.60;99.90;;;;;;5092803;28;20411;-78
2023/01/23 03:04:16;;;;;;;;;;;10.60;99.90;;;;;;5093324;28;19912;-78
2023/01/23 03:06:42;;;;;;;;;;;10.70;99.90;;;;;;5092065;28;20027;-78
2023/01/23 03:09:12;;;;;;;;;;;10.60;99.90;;;;;;5093101;28;19915;-77
2023/01/23 03:11:39;;;;;;;;;;;10.60;99.90;;;;;;5092951;28;20261;-82
2023/01/23 03:14:06;;;;;;;;;;;10.70;99.90;;;;;;5091470;28;19919;-77
2023/01/23 03:16:33;;;;;;;;;;;10.70;99.90;;;;;;5091556;28;19916;-76
2023/01/23 03:19:03;;;;;;;;;;;10.70;99.90;;;;;;5092137;28;19904;-77
2023/01/23 03:21:29;;;;;;;;;;;10.60;99.90;;;;;;5093148;28;19912;-77
2023/01/23 03:23:55;;;;;;;;;;;10.60;99.90;;;;;;5092365;28;20371;-77
2023/01/23 03:26:21;;;;;;;;;;;10.60;99.90;;;;;;5092949;28;19916;-77
2023/01/23 03:31:30;;;;;;;;;;;10.60;99.90;;;;;;5092362;28;19961;-77
2023/01/23 03:33:56;;;;;;;;;;;10.70;99.90;;;;;;5091862;28;19983;-77
2023/01/23 03:36:21;;;;;;;;;;;10.70;99.90;;;;;;5092298;28;19908;-78
2023/01/23 03:41:31;;;;;;;;;;;10.70;99.90;;;;;;5092010;28;20372;-77
2023/01/23 03:43:56;;;;;;;;;;;10.70;99.90;;;;;;5091862;28;19916;-77
2023/01/23 03:46:22;;;;;;;;;;;10.60;99.90;;;;;;5092193;28;19922;-77
2023/01/23 03:48:48;;;;;;;;;;;10.60;99.90;;;;;;5091655;28;19908;-79
2023/01/23 03:51:13;;;;;;;;;;;10.60;99.90;;;;;;5092038;28;19938;-79
2023/01/23 03:53:39;;;;;;;;;;;10.60;99.90;;;;;;5092114;28;19908;-78
2023/01/23 03:56:05;;;;;;;;;;;10.60;99.90;;;;;;5091635;28;19962;-78
2023/01/23 03:58:31;;;;;;;;;;;10.60;99.90;;;;;;5092460;28;19908;-78
2023/01/23 04:00:56;;;;;;;;;;;10.60;99.90;;;;;;5091286;28;20254;-78
2023/01/23 04:03:22;;;;;;;;;;;10.60;99.90;;;;;;5091803;28;19908;-78
2023/01/23 04:05:47;;;;;;;;;;;10.60;99.90;;;;;;5091172;28;19960;-78
2023/01/23 04:08:13;;;;;;;;;;;10.60;99.90;;;;;;5092111;28;20015;-78
2023/01/23 04:10:38;;;;;;;;;;;10.50;99.90;;;;;;5091878;28;19908;-78
2023/01/23 04:13:04;;;;;;;;;;;10.40;99.90;;;;;;5091238;28;19994;-78
2023/01/23 04:15:33;;;;;;;;;;;10.40;99.90;;;;;;5091500;28;19908;-78
2023/01/23 04:17:58;;;;;;;;;;;10.40;99.90;;;;;;5089633;28;19908;-78
2023/01/23 04:20:24;;;;;;;;;;;10.30;99.90;;;;;;5091873;28;19919;-78
2023/01/23 04:22:49;;;;;;;;;;;10.20;99.90;;;;;;5091327;28;19919;-78
2023/01/23 04:25:15;;;;;;;;;;;10.20;99.90;;;;;;5091944;28;19915;-77
2023/01/23 04:27:40;;;;;;;;;;;10.20;99.90;;;;;;5090381;28;19928;-78
2023/01/23 04:30:06;;;;;;;;;;;10.20;99.90;;;;;;5091132;28;20353;-76
2023/01/23 04:32:32;;;;;;;;;;;10.20;99.90;;;;;;5091500;28;20339;-77
2023/01/23 04:34:57;;;;;;;;;;;10.20;99.90;;;;;;5091085;28;19917;-78
2023/01/23 04:37:23;;;;;;;;;;;10.20;99.90;;;;;;5091124;28;19938;-77
2023/01/23 04:39:48;;;;;;;;;;;10.20;99.90;;;;;;5089858;28;20020;-78
2023/01/23 04:42:14;;;;;;;;;;;10.20;99.90;;;;;;5090133;28;19973;-78
2023/01/23 04:44:39;;;;;;;;;;;10.20;99.90;;;;;;5091596;28;20356;-78
2023/01/23 04:47:05;;;;;;;;;;;10.20;99.90;;;;;;5091271;28;20755;-77
2023/01/23 04:49:31;;;;;;;;;;;10.20;99.90;;;;;;5091720;28;19916;-77
2023/01/23 04:51:56;;;;;;;;;;;10.20;99.90;;;;;;5089759;28;19995;-77
2023/01/23 04:54:22;;;;;;;;;;;10.30;99.90;;;;;;5091316;28;19908;-78
2023/01/23 04:56:47;;;;;;;;;;;10.30;99.90;;;;;;5090724;28;20019;-79
2023/01/23 04:59:14;;;;;;;;;;;10.30;99.90;;;;;;5091446;28;19919;-78
2023/01/23 05:01:40;;;;;;;;;;;10.30;99.90;;;;;;5091546;28;19909;-78
2023/01/23 05:04:05;;;;;;;;;;;10.30;99.90;;;;;;5090924;28;19912;-78
2023/01/23 05:06:31;;;;;;;;;;;10.30;99.90;;;;;;5091314;28;20356;-77
2023/01/23 05:08:57;;;;;;;;;;;10.30;99.90;;;;;;5090880;28;19919;-77
2023/01/23 05:11:23;;;;;;;;;;;10.30;99.90;;;;;;5091236;28;19909;-77
2023/01/23 05:13:49;;;;;;;;;;;10.30;99.90;;;;;;5090829;28;19966;-78
2023/01/23 05:16:15;;;;;;;;;;;10.30;99.90;;;;;;5090920;28;20012;-78
2023/01/23 05:18:41;;;;;;;;;;;10.30;99.90;;;;;;5091016;28;20006;-78
2023/01/23 05:21:06;;;;;;;;;;;10.30;99.90;;;;;;5090642;28;20539;-78
2023/01/23 05:23:32;;;;;;;;;;;10.40;99.90;;;;;;5090862;28;19915;-78
2023/01/23 05:25:57;;;;;;;;;;;10.40;99.90;;;;;;5090157;28;20335;-77
2023/01/23 05:28:23;;;;;;;;;;;10.50;99.90;;;;;;5089940;28;19916;-77
2023/01/23 05:30:49;;;;;;;;;;;10.50;99.90;;;;;;5090385;28;19912;-82
2023/01/23 05:33:14;;;;;;;;;;;10.50;99.90;;;;;;5090333;28;20230;-77
2023/01/23 05:35:40;;;;;;;;;;;10.50;99.90;;;;;;5090008;28;19942;-77
2023/01/23 05:38:06;;;;;;;;;;;10.50;99.90;;;;;;5090048;28;20314;-77
2023/01/23 05:40:31;;;;;;;;;;;10.60;99.90;;;;;;5090028;28;19909;-76
2023/01/23 05:42:57;;;;;;;;;;;10.60;99.90;;;;;;5089723;28;20008;-76
2023/01/23 05:45:22;;;;;;;;;;;10.60;99.90;;;;;;5090521;28;19988;-77
2023/01/23 05:47:48;;;;;;;;;;;10.60;99.90;;;;;;5088502;28;19920;-81
2023/01/23 05:50:15;;;;;;;;;;;10.60;99.90;;;;;;5093696;28;19940;-79
2023/01/23 05:52:41;;;;;;;;;;;10.60;99.90;;;;;;5095081;28;20315;-78
2023/01/23 05:55:06;;;;;;;;;;;10.60;99.90;;;;;;5094519;28;19916;-78
2023/01/23 05:57:33;;;;;;;;;;;10.60;99.90;;;;;;5094824;28;19969;-78
2023/01/23 05:59:58;;;;;;;;;;;10.60;99.90;;;;;;5093422;28;19915;-77
2023/01/23 06:02:24;;;;;;;;;;;10.60;99.90;;;;;;5094901;28;19915;-76
2023/01/23 06:04:49;;;;;;;;;;;10.60;99.90;;;;;;5095065;28;19924;-83
2023/01/23 06:07:16;;;;;;;;;;;10.60;99.90;;;;;;5095596;28;19924;-78
2023/01/23 06:09:42;;;;;;;;;;;10.60;99.90;;;;;;5094641;28;19908;-78
2023/01/23 06:12:08;;;;;;;;;;;10.60;99.90;;;;;;5094352;28;19957;-78
2023/01/23 06:14:33;;;;;;;;;;;10.60;99.90;;;;;;5095673;28;20041;-78
2023/01/23 06:16:59;;;;;;;;;;;10.60;99.90;;;;;;5094019;28;19961;-79
2023/01/23 06:19:24;;;;;;;;;;;10.60;99.90;;;;;;5094857;28;19908;-78
2023/01/23 06:21:50;;;;;;;;;;;10.60;99.90;;;;;;5094183;28;20300;-82
2023/01/23 06:24:16;;;;;;;;;;;10.60;99.90;;;;;;5094361;28;19908;-78
2023/01/23 06:26:41;;;;;;;;;;;10.60;99.90;;;;;;5094372;28;20003;-79
2023/01/23 06:29:07;;;;;;;;;;;10.50;99.90;;;;;;5094012;28;20049;-78
2023/01/23 06:31:32;;;;;;;;;;;10.50;99.90;;;;;;5094039;28;19989;-79
2023/01/23 06:33:58;;;;;;;;;;;10.50;99.90;;;;;;5091790;28;19908;-79
2023/01/23 06:36:24;;;;;;;;;;;10.40;99.90;;;;;;5093693;28;20414;-78
2023/01/23 06:38:50;;;;;;;;;;;10.40;99.90;;;;;;5093718;28;20019;-78
2023/01/23 06:41:15;;;;;;;;;;;10.30;99.90;;;;;;5093016;28;19962;-77
2023/01/23 06:43:41;;;;;;;;;;;10.30;99.90;;;;;;5093496;28;19919;-78
2023/01/23 06:46:08;;;;;;;;;;;10.20;99.90;;;;;;5093768;28;19916;-77
2023/01/23 06:48:34;;;;;;;;;;;10.20;99.90;;;;;;5093174;28;20400;-78
2023/01/23 06:50:59;;;;;;;;;;;10.20;99.90;;;;;;5093109;28;19990;-77
2023/01/23 06:53:26;;;;;;;;;;;10.10;99.90;;;;;;5093482;28;19908;-77
2023/01/23 06:55:51;;;;;;;;;;;10.10;99.90;;;;;;5093289;28;19909;-77
2023/01/23 06:58:17;;;;;;;;;;;10.00;99.90;;;;;;5092849;28;19912;-78
2023/01/23 07:00:43;;;;;;;;;;;10.00;99.90;;;;;;5093079;28;19927;-76
2023/01/23 07:03:12;;;;;;;;;;;10.00;99.90;;;;;;5092391;28;20254;-77
2023/01/23 07:05:39;;;;;;;;;;;9.90;99.90;;;;;;5093061;28;19924;-78
2023/01/23 07:08:06;;;;;;;;;;;9.90;99.90;;;;;;5092618;28;20361;-78
2023/01/23 07:10:31;;;;;;;;;;;9.90;99.90;;;;;;5093265;28;19977;-77
2023/01/23 07:12:57;;;;;;;;;;;9.90;99.90;;;;;;5093199;28;20343;-78
2023/01/23 07:15:23;;;;;;;;;;;9.90;99.90;;;;;;5094555;28;19908;-77
2023/01/23 07:17:48;;;;;;;;;;;9.80;99.90;;;;;;5093056;28;20262;-77
2023/01/23 07:20:14;;;;;;;;;;;9.80;99.90;;;;;;5092842;28;19961;-78
2023/01/23 07:22:40;;;;;;;;;;;9.80;99.90;;;;;;5093155;28;20073;-78
2023/01/23 07:25:06;;;;;;;;;;;9.80;99.90;;;;;;5092351;28;19915;-76
2023/01/23 07:27:32;;;;;;;;;;;9.80;99.90;;;;;;5092353;28;19916;-77
2023/01/23 07:29:57;;;;;;;;;;;9.80;99.90;;;;;;5092337;28;19908;-79
2023/01/23 07:32:23;;;;;;;;;;;9.70;99.90;;;;;;5092675;28;20268;-77
2023/01/23 07:34:48;;;;;;;;;;;9.70;99.90;;;;;;5092459;28;20290;-78
2023/01/23 07:37:14;;;;;;;;;;;9.70;99.90;;;;;;5091601;28;20390;-77
2023/01/23 07:39:39;;;;;;;;;;;9.70;99.90;;;;;;5091059;28;19915;-77
2023/01/23 07:42:05;;;;;;;;;;;9.60;99.90;;;;;;5091697;28;20346;-78
2023/01/23 07:44:31;;;;;;;;;;;9.70;99.90;;;;;;5092136;28;19915;-77
2023/01/23 07:46:56;;;;;;;;;;;9.70;99.90;;;;;;5091764;28;20265;-83
2023/01/23 07:49:22;;;;;;;;;;;9.60;99.90;;;;;;5092070;28;19919;-77
2023/01/23 07:51:47;;;;;;;;;;;9.60;99.90;;;;;;5092143;28;19952;-77
2023/01/23 07:54:13;;;;;;;;;;;9.60;99.90;;;;;;5091533;28;19943;-79
2023/01/23 07:56:39;;;;;;;;;;;9.50;99.90;;;;;;5091804;28;19908;-78
2023/01/23 07:59:04;;;;;;;;;;;9.50;99.90;;;;;;5091306;28;19909;-76
2023/01/23 08:01:30;;;;;;;;;;;9.50;99.90;;;;;;5091409;28;19912;-77
2023/01/23 08:03:56;;;;;;;;;;;9.50;99.90;;;;;;5092084;28;19908;-78
2023/01/23 08:06:21;;;;;;;;;;;9.40;99.90;;;;;;5091133;28;20358;-78
2023/01/23 08:08:47;;;;;;;;;;;9.40;99.90;;;;;;5091341;28;20246;-78
2023/01/23 08:11:13;;;;;;;;;;;9.40;99.90;;;;;;5090461;28;20289;-78
2023/01/23 08:13:39;;;;;;;;;;;9.30;99.90;;;;;;5091595;28;19908;-78
2023/01/23 08:16:05;;;;;;;;;;;9.30;99.90;;;;;;5091401;28;19915;-78
2023/01/23 08:18:31;;;;;;;;;;;9.30;99.90;;;;;;5091496;28;19964;-78
2023/01/23 08:20:58;;;;;;;;;;;9.30;99.90;;;;;;5092161;28;19912;-78
2023/01/23 08:23:28;;;;;;;;;;;9.30;99.90;;;;;;5091609;28;19915;-79
2023/01/23 08:25:54;;;;;;;;;;;9.20;99.90;;;;;;5091485;28;19908;-78
2023/01/23 08:28:20;;;;;;;;;;;9.20;99.90;;;;;;5089340;28;19912;-78
2023/01/23 08:30:46;;;;;;;;;;;9.20;99.90;;;;;;5091576;28;19908;-77
2023/01/23 08:33:12;;;;;;;;;;;9.20;99.90;;;;;;5090640;28;20015;-78
2023/01/23 08:35:37;;;;;;;;;;;9.20;99.90;;;;;;5091432;28;19966;-77
2023/01/23 08:38:04;;;;;;;;;;;9.20;99.90;;;;;;5090647;28;19914;-78
2023/01/23 08:40:30;;;;;;;;;;;9.20;99.90;;;;;;5091496;28;19908;-78
2023/01/23 08:42:55;;;;;;;;;;;9.20;99.90;;;;;;5091138;28;19955;-79
2023/01/23 08:45:21;;;;;;;;;;;9.20;99.90;;;;;;5090767;28;19911;-78
2023/01/23 08:47:47;;;;;;;;;;;9.20;99.90;;;;;;5089609;28;19924;-76
2023/01/23 08:50:12;;;;;;;;;;;9.10;99.90;;;;;;5090308;28;19916;-77
2023/01/23 08:52:38;;;;;;;;;;;9.10;99.90;;;;;;5090997;28;19915;-77
2023/01/23 08:55:04;;;;;;;;;;;9.10;99.90;;;;;;5090736;28;19958;-78
2023/01/23 08:57:29;;;;;;;;;;;9.20;99.90;;;;;;5090704;28;20034;-77
2023/01/23 08:59:55;;;;;;;;;;;9.20;99.90;;;;;;5090736;28;20271;-77
2023/01/23 09:02:20;;;;;;;;;;;9.10;99.90;;;;;;5090103;28;20003;-77
2023/01/23 09:04:46;;;;;;;;;;;9.10;99.90;;;;;;5090697;28;19919;-77
2023/01/23 09:07:12;;;;;;;;;;;9.10;99.90;;;;;;5089628;28;19920;-78
2023/01/23 09:09:38;;;;;;;;;;;9.10;99.90;;;;;;5090325;28;20006;-77
2023/01/23 09:12:03;;;;;;;;;;;9.10;99.90;;;;;;5089552;28;20357;-83
2023/01/23 09:14:29;;;;;;;;;;;9.10;99.90;;;;;;5088736;28;20267;-78
2023/01/23 09:16:54;;;;;;;;;;;9.10;99.90;;;;;;5090156;28;20370;-77
2023/01/23 09:19:20;;;;;;;;;;;9.10;99.90;;;;;;5089648;28;19912;-78
2023/01/23 09:21:46;;;;;;;;;;;9.10;99.90;;;;;;5088923;28;20410;-77
2023/01/23 09:24:11;;;;;;;;;;;9.10;99.90;;;;;;5093217;28;19954;-77
2023/01/23 09:26:37;;;;;;;;;;;9.20;99.90;;;;;;5094590;28;19920;-78
2023/01/23 09:29:02;;;;;;;;;;;9.20;99.90;;;;;;5094910;28;20008;-81
2023/01/23 09:31:28;;;;;;;;;;;9.20;99.90;;;;;;5094812;28;20058;-78
2023/01/23 09:33:53;;;;;;;;;;;9.20;99.90;;;;;;5094735;28;19940;-77
2023/01/23 09:36:19;;;;;;;;;;;9.30;99.90;;;;;;5093940;28;19908;-78
2023/01/23 09:38:46;;;;;;;;;;;9.30;99.90;;;;;;5093412;28;19931;-78
2023/01/23 09:41:16;;;;;;;;;;;9.40;99.90;;;;;;5093944;28;19912;-78
2023/01/23 09:43:42;;;;;;;;;;;9.40;99.90;;;;;;5094621;28;20230;-78
2023/01/23 09:46:43;;;;;;;;;;;9.40;99.90;;;;;;5094204;28;19908;-79
2023/01/23 09:49:17;;;;;;;;;;;9.50;99.90;;;;;;5054334;28;19916;-79
2023/01/23 09:52:11;;;;;;;;;;;9.50;99.90;;;;;;5091020;28;19911;-79
2023/01/23 09:54:45;;;;;;;;;;;9.50;99.90;;;;;;5078928;28;19916;-79
2023/01/23 09:57:22;;;;;;;;;;;9.50;99.90;;;;;;5093194;28;20335;-78
2023/01/23 10:00:10;;;;;;;;;;;9.60;99.90;;;;;;5092155;28;19999;-78
2023/01/23 10:02:36;;;;;;;;;;;9.60;99.90;;;;;;5094344;28;20325;-79
2023/01/23 10:05:01;;;;;;;;;;;9.60;99.90;;;;;;5093917;28;19915;-78
2023/01/23 10:07:30;;;;;;;;;;;9.70;99.90;;;;;;5093241;28;19923;-77
2023/01/23 10:09:58;;;;;;;;;;;9.70;99.90;;;;;;5094152;28;19934;-78
2023/01/23 10:12:36;;;;;;;;;;;9.80;99.90;;;;;;5093344;28;19908;-77
2023/01/23 10:15:02;;;;;;;;;;;9.80;99.90;;;;;;5094189;28;19927;-77
2023/01/23 10:17:40;;;;;;;;;;;9.90;99.90;;;;;;5093502;28;19908;-77
2023/01/23 10:20:21;;;;;;;;;;;9.90;99.90;;;;;;5093776;28;19923;-83
2023/01/23 10:22:56;;;;;;;;;;;10.00;99.90;;;;;;5093804;28;19919;-77
2023/01/23 10:25:24;;;;;;;;;;;10.10;99.90;;;;;;5093325;28;19948;-77
2023/01/23 10:27:50;;;;;;;;;;;10.20;99.90;;;;;;5093487;28;19990;-79
2023/01/23 10:30:23;;;;;;;;;;;10.30;99.90;;;;;;5094183;28;19908;-77
2023/01/23 10:32:51;;;;;;;;;;;10.40;99.90;;;;;;5093458;28;19964;-79
2023/01/23 10:35:18;;;;;;;;;;;10.50;99.90;;;;;;5092716;28;20260;-78
2023/01/23 10:37:56;;;;;;;;;;;10.60;99.90;;;;;;5091909;28;20003;-78
2023/01/23 10:43:26;;;;;;;;;;;10.80;99.90;;;;;;5092949;28;19923;-83
2023/01/23 10:45:51;;;;;;;;;;;11.00;99.90;;;;;;5093154;28;19908;-78
2023/01/23 10:48:26;;;;;;;;;;;11.00;99.90;;;;;;5092153;28;19920;-78
2023/01/23 10:50:51;;;;;;;;;;;11.10;99.90;;;;;;5093310;28;20355;-78
2023/01/23 10:53:18;;;;;;;;;;;11.20;99.90;;;;;;5092420;28;19947;-78
2023/01/23 10:55:44;;;;;;;;;;;11.20;99.90;;;;;;5092501;28;19909;-78
2023/01/23 10:58:22;;;;;;;;;;;11.20;99.90;;;;;;5092043;28;19908;-82
2023/01/23 11:00:49;;;;;;;;;;;11.30;99.90;;;;;;5092423;28;20293;-78
2023/01/23 11:03:21;;;;;;;;;;;11.30;99.90;;;;;;5090378;28;19995;-77
2023/01/23 11:05:51;;;;;;;;;;;11.40;99.90;;;;;;5092503;28;19924;-77
2023/01/23 11:08:22;;;;;;;;;;;11.40;99.90;;;;;;5091869;28;19922;-77
2023/01/23 11:10:47;;;;;;;;;;;11.40;99.90;;;;;;5092423;28;20334;-78
2023/01/23 11:13:29;;;;;;;;;;;11.50;99.90;;;;;;5092294;28;19908;-78
2023/01/23 11:15:55;;;;;;;;;;;11.50;99.90;;;;;;5092629;28;19977;-77
2023/01/23 11:18:41;;;;;;;;;;;11.60;99.90;;;;;;5091806;28;20353;-78
2023/01/23 11:21:18;;;;;;;;;;;11.60;99.90;;;;;;5092365;28;20174;-82
2023/01/23 11:23:44;;;;;;;;;;;11.70;99.90;;;;;;5092298;28;19962;-78
2023/01/23 11:26:29;;;;;;;;;;;11.70;99.90;;;;;;5091609;28;19940;-83
2023/01/23 11:28:55;;;;;;;;;;;11.70;99.90;;;;;;5074327;28;19915;-78
2023/01/23 11:31:21;;;;;;;;;;;11.70;99.90;;;;;;5092128;28;19945;-77
2023/01/23 11:34:05;;;;;;;;;;;11.70;99.90;;;;;;5092189;28;19923;-77
2023/01/23 11:37:00;;;;;;;;;;;11.70;99.90;;;;;;5092410;28;19908;-77
2023/01/23 11:39:38;;;;;;;;;;;11.70;99.90;;;;;;5082969;28;19908;-78
2023/01/23 11:42:04;;;;;;;;;;;11.70;99.90;;;;;;5091402;28;19912;-77
2023/01/23 11:44:31;;;;;;;;;;;11.70;99.90;;;;;;5092165;28;19908;-77
2023/01/23 11:47:34;;;;;;;;;;;11.80;99.90;;;;;;5091475;28;19977;-77
2023/01/23 11:50:19;;;;;;;;;;;11.90;99.90;;;;;;5049766;28;19931;-77
2023/01/23 11:53:01;;;;;;;;;;;11.90;99.90;;;;;;5050106;28;20370;-78
2023/01/23 11:55:44;;;;;;;;;;;11.90;99.90;;;;;;5049148;28;20234;-77
2023/01/23 11:58:19;;;;;;;;;;;11.90;99.90;;;;;;5049597;28;19909;-84
2023/01/23 12:00:47;;;;;;;;;;;12.00;99.90;;;;;;5050085;28;19932;-77
2023/01/23 12:03:16;;;;;;;;;;;12.00;99.90;;;;;;5049460;28;19920;-77
2023/01/23 12:05:48;;;;;;;;;;;12.00;99.90;;;;;;5049432;28;19928;-77
2023/01/23 12:08:32;;;;;;;;;;;12.00;99.90;;;;;;5048727;28;20119;-78
2023/01/23 12:11:10;;;;;;;;;;;12.10;99.90;;;;;;5049584;28;19909;-76
2023/01/23 12:13:36;;;;;;;;;;;12.20;99.90;;;;;;5049319;28;19916;-77
2023/01/23 12:16:20;;;;;;;;;;;12.10;99.90;;;;;;5049365;28;20290;-77
2023/01/23 12:19:04;;;;;;;;;;;12.10;99.90;;;;;;5049386;28;20334;-77
2023/01/23 12:21:48;;;;;;;;;;;12.10;99.90;;;;;;5082886;28;20554;-77
2023/01/23 12:24:17;;;;;;;;;;;12.20;99.90;;;;;;5091755;28;19953;-78
2023/01/23 12:27:06;;;;;;;;;;;12.20;99.90;;;;;;5092008;28;19916;-76
2023/01/23 12:29:51;;;;;;;;;;;12.20;99.90;;;;;;5091783;28;19905;-76
2023/01/23 12:32:26;;;;;;;;;;;12.20;99.90;;;;;;5070048;28;19912;-75
2023/01/23 12:35:23;;;;;;;;;;;12.30;99.90;;;;;;5091598;28;19908;-78
2023/01/23 12:37:58;;;;;;;;;;;12.40;99.90;;;;;;5068124;28;20377;-76
2023/01/23 12:40:36;;;;;;;;;;;12.40;99.90;;;;;;5091325;28;19908;-76
2023/01/23 12:43:10;;;;;;;;;;;12.50;99.90;;;;;;5091877;28;19947;-77
2023/01/23 12:45:37;;;;;;;;;;;12.50;99.90;;;;;;5089436;28;19995;-76
2023/01/23 12:48:06;;;;;;;;;;;12.50;99.90;;;;;;5091599;28;19916;-76
2023/01/23 12:50:40;;;;;;;;;;;12.60;99.90;;;;;;5091371;28;19920;-77
2023/01/23 12:53:09;;;;;;;;;;;12.70;99.90;;;;;;5091813;28;19908;-76
2023/01/23 12:55:40;;;;;;;;;;;12.80;99.90;;;;;;5090869;28;19908;-77
2023/01/23 12:58:09;;;;;;;;;;;12.90;99.90;;;;;;5091284;28;19909;-79
2023/01/23 13:00:44;;;;;;;;;;;13.00;99.90;;;;;;5090785;28;19953;-77
2023/01/23 13:03:13;;;;;;;;;;;13.00;99.90;;;;;;5089622;28;20439;-78
2023/01/23 13:05:46;;;;;;;;;;;13.10;99.90;;;;;;5090745;28;19938;-78
2023/01/23 13:08:14;;;;;;;;;;;13.10;99.90;;;;;;5089997;28;21616;-84
2023/01/23 13:13:43;;;;;;;;;;;13.20;99.90;;;;;;5091956;28;19916;-76
2023/01/23 13:16:13;;;;;;;;;;;13.30;99.90;;;;;;5091957;28;19908;-79
2023/01/23 13:27:26;;;;;;;;;;;13.10;99.90;;;;;;5091702;28;19974;-77
2023/01/23 13:29:52;;;;;;;;;;;13.10;99.90;;;;;;5090787;28;19914;-78
2023/01/23 13:32:21;;;;;;;;;;;13.00;99.90;;;;;;5090154;28;19994;-77
2023/01/23 13:34:47;;;;;;;;;;;12.90;99.90;;;;;;5089388;28;19976;-78
2023/01/23 13:37:25;;;;;;;;;;;12.90;99.90;;;;;;5090632;28;20314;-78
2023/01/23 13:40:09;;;;;;;;;;;12.80;99.90;;;;;;5090945;28;19965;-77
2023/01/23 13:42:34;;;;;;;;;;;12.80;99.90;;;;;;5089491;28;20097;-76
2023/01/23 13:45:15;;;;;;;;;;;12.70;99.90;;;;;;5088861;28;20341;-77
2023/01/23 13:50:39;;;;;;;;;;;12.60;99.90;;;;;;5087153;28;19914;-76
2023/01/23 13:58:47;;;;;;;;;;;12.50;99.90;;;;;;5089612;28;20077;-78
2023/01/23 14:06:44;;;;;;;;;;;12.30;99.90;;;;;;5090222;28;19927;-78
2023/01/23 14:09:28;;;;;;;;;;;12.20;99.90;;;;;;5090218;28;20281;-76
2023/01/23 14:11:57;;;;;;;;;;;12.20;99.90;;;;;;5092774;28;20365;-77
2023/01/23 14:17:08;;;;;;;;;;;12.10;99.90;;;;;;5093783;28;19964;-77
2023/01/23 14:19:35;;;;;;;;;;;12.00;99.90;;;;;;5093773;28;19908;-77
2023/01/23 14:22:05;;;;;;;;;;;11.90;99.90;;;;;;5094228;28;20001;-77
2023/01/23 14:24:41;;;;;;;;;;;11.90;99.90;;;;;;5093369;28;19914;-78
2023/01/23 14:27:08;;;;;;;;;;;11.80;99.90;;;;;;5093963;28;19917;-78
2023/01/23 14:29:34;;;;;;;;;;;11.70;99.90;;;;;;5093707;28;19943;-79
2023/01/23 14:31:59;;;;;;;;;;;11.60;99.90;;;;;;5094118;28;19912;-78
2023/01/23 14:34:25;;;;;;;;;;;11.60;99.90;;;;;;5093752;28;19908;-78
2023/01/23 14:36:53;;;;;;;;;;;11.50;99.90;;;;;;5093868;28;19908;-79
2023/01/23 14:39:20;;;;;;;;;;;11.50;99.90;;;;;;5093023;28;19908;-87
2023/01/23 14:41:46;;;;;;;;;;;11.40;99.90;;;;;;5093040;28;19908;-78
2023/01/23 14:44:18;;;;;;;;;;;11.30;99.90;;;;;;5093209;28;19920;-80
2023/01/23 14:46:45;;;;;;;;;;;11.30;99.90;;;;;;5093425;28;19917;-79
2023/01/23 14:49:13;;;;;;;;;;;11.20;99.90;;;;;;5093263;28;19919;-79
2023/01/23 14:51:39;;;;;;;;;;;11.20;99.90;;;;;;5092550;28;19966;-79
2023/01/23 14:54:14;;;;;;;;;;;11.20;99.90;;;;;;5093367;28;19912;-79
2023/01/23 14:56:40;;;;;;;;;;;11.20;99.90;;;;;;5092896;28;20329;-79
2023/01/23 14:59:06;;;;;;;;;;;11.20;99.90;;;;;;5092676;28;19919;-79
2023/01/23 15:01:32;;;;;;;;;;;11.20;99.90;;;;;;5093198;28;19915;-78
2023/01/23 15:04:18;;;;;;;;;;;11.20;99.90;;;;;;5093824;28;20057;-78
2023/01/23 15:06:49;;;;;;;;;;;11.10;99.90;;;;;;5093058;28;19920;-79
2023/01/23 15:09:37;;;;;;;;;;;11.10;99.90;;;;;;5092960;28;20230;-79